Time,TemperatureF,DewpointF,PressureIn,WindDirection,WindDirectionDegrees,WindSpeedMPH,WindSpeedGustMPH,Humidity,HourlyPrecipIn,Conditions,Clouds,dailyrainin,SoftwareType,DateUTC
2013-08-29 00:01:00,59.5,54.7,30.26,East,90,0.0,0.7,84,0.00,,,0.00,meteobridge,2013-08-29 06:01:00,
2013-08-29 00:07:00,59.5,55.0,30.26,NE,45,0.0,0.0,85,0.00,,,0.00,meteobridge,2013-08-29 06:07:00,
2013-08-29 00:14:00,59.5,55.0,30.26,North,0,2.2,3.8,85,0.00,,,0.00,meteobridge,2013-08-29 06:14:00,
2013-08-29 00:20:00,59.4,54.9,30.25,North,0,4.5,4.5,85,0.00,,,0.00,meteobridge,2013-08-29 06:20:00,
2013-08-29 00:26:00,59.0,54.1,30.25,East,90,3.1,3.1,84,0.00,,,0.00,meteobridge,2013-08-29 06:26:00,
2013-08-29 00:33:00,59.0,54.1,30.25,NE,45,3.8,3.8,84,0.00,,,0.00,meteobridge,2013-08-29 06:33:00,
2013-08-29 00:39:00,58.8,54.3,30.25,East,90,0.0,2.2,85,0.00,,,0.00,meteobridge,2013-08-29 06:39:00,
2013-08-29 00:45:00,58.6,54.1,30.24,North,0,3.8,3.8,85,0.00,,,0.00,meteobridge,2013-08-29 06:45:00,
2013-08-29 00:52:00,58.8,54.3,30.24,NE,45,3.8,3.8,85,0.00,,,0.00,meteobridge,2013-08-29 06:52:00,
2013-08-29 00:58:00,58.5,54.0,30.24,East,90,3.1,3.1,85,0.00,,,0.00,meteobridge,2013-08-29 06:58:00,
2013-08-29 01:04:00,58.5,54.0,30.24,SE,135,0.0,0.0,85,0.00,,,0.00,meteobridge,2013-08-29 07:04:00,
2013-08-29 01:11:00,58.6,54.1,30.24,North,0,0.0,2.2,85,0.00,,,0.00,meteobridge,2013-08-29 07:11:00,
2013-08-29 01:17:00,58.6,54.1,30.24,SE,135,0.0,0.0,85,0.00,,,0.00,meteobridge,2013-08-29 07:17:00,
2013-08-29 01:24:00,59.0,54.1,30.23,East,90,0.0,0.0,84,0.00,,,0.00,meteobridge,2013-08-29 07:24:00,
2013-08-29 01:30:00,59.5,55.0,30.23,SE,135,0.0,0.0,85,0.00,,,0.00,meteobridge,2013-08-29 07:30:00,
2013-08-29 01:36:00,59.2,54.7,30.23,East,90,0.0,0.0,85,0.00,,,0.00,meteobridge,2013-08-29 07:36:00,
2013-08-29 01:43:00,59.0,54.5,30.23,NE,45,3.1,4.5,85,0.00,,,0.00,meteobridge,2013-08-29 07:43:00,
2013-08-29 01:49:00,59.0,54.5,30.23,East,90,1.6,1.6,85,0.00,,,0.00,meteobridge,2013-08-29 07:49:00,
2013-08-29 01:55:00,58.6,53.8,30.22,East,90,1.6,1.6,84,0.00,,,0.00,meteobridge,2013-08-29 07:55:00,
2013-08-29 02:02:00,58.5,53.6,30.22,NE,45,3.8,3.8,84,0.00,,,0.00,meteobridge,2013-08-29 08:02:00,
2013-08-29 02:08:00,58.5,53.6,30.22,NE,45,3.8,3.8,84,0.00,,,0.00,meteobridge,2013-08-29 08:08:00,
2013-08-29 02:14:00,58.6,53.8,30.22,East,90,0.0,2.2,84,0.00,,,0.00,meteobridge,2013-08-29 08:14:00,
2013-08-29 02:21:00,58.3,53.4,30.22,NE,45,3.1,3.1,84,0.00,,,0.00,meteobridge,2013-08-29 08:21:00,
2013-08-29 02:27:00,58.1,53.2,30.22,NE,45,3.8,4.5,84,0.00,,,0.00,meteobridge,2013-08-29 08:27:00,
2013-08-29 02:33:00,57.9,53.1,30.22,East,90,4.5,5.4,84,0.00,,,0.00,meteobridge,2013-08-29 08:33:00,
2013-08-29 02:40:00,58.1,53.2,30.22,East,90,2.2,3.1,84,0.00,,,0.00,meteobridge,2013-08-29 08:40:00,
2013-08-29 02:46:00,57.9,53.1,30.22,NE,45,0.0,0.0,84,0.00,,,0.00,meteobridge,2013-08-29 08:46:00,
2013-08-29 02:52:00,57.7,52.9,30.22,East,90,0.0,2.2,84,0.00,,,0.00,meteobridge,2013-08-29 08:52:00,
2013-08-29 02:59:00,58.1,53.2,30.22,East,90,4.5,4.5,84,0.00,,,0.00,meteobridge,2013-08-29 08:59:00,
2013-08-29 03:05:00,58.1,53.6,30.22,NE,45,3.1,3.8,85,0.00,,,0.00,meteobridge,2013-08-29 09:05:00,
2013-08-29 03:11:00,58.5,54.0,30.22,North,0,2.2,3.1,85,0.00,,,0.00,meteobridge,2013-08-29 09:11:00,
2013-08-29 03:18:00,58.3,53.4,30.22,NE,45,3.1,3.8,84,0.00,,,0.00,meteobridge,2013-08-29 09:18:00,
2013-08-29 03:24:00,58.5,53.6,30.23,NE,45,1.6,2.2,84,0.00,,,0.00,meteobridge,2013-08-29 09:24:00,
2013-08-29 03:30:00,58.6,53.8,30.23,North,0,3.8,3.8,84,0.00,,,0.00,meteobridge,2013-08-29 09:30:00,
2013-08-29 03:37:00,58.5,53.6,30.23,East,90,2.2,3.8,84,0.00,,,0.00,meteobridge,2013-08-29 09:37:00,
2013-08-29 03:43:00,58.8,54.0,30.22,NE,45,3.1,3.8,84,0.00,,,0.00,meteobridge,2013-08-29 09:43:00,
2013-08-29 03:49:00,59.0,53.8,30.22,NE,45,0.0,0.0,83,0.00,,,0.00,meteobridge,2013-08-29 09:49:00,
2013-08-29 03:56:00,59.2,54.0,30.22,East,90,0.0,1.6,83,0.00,,,0.00,meteobridge,2013-08-29 09:56:00,
2013-08-29 04:02:00,59.5,54.3,30.22,East,90,3.1,3.1,83,0.00,,,0.00,meteobridge,2013-08-29 10:02:00,
2013-08-29 04:08:00,59.4,54.1,30.23,NE,45,3.1,3.1,83,0.00,,,0.00,meteobridge,2013-08-29 10:08:00,
2013-08-29 04:15:00,59.0,53.8,30.23,East,90,0.0,1.6,83,0.00,,,0.00,meteobridge,2013-08-29 10:15:00,
2013-08-29 04:21:00,59.0,53.8,30.23,NE,45,3.8,4.5,83,0.00,,,0.00,meteobridge,2013-08-29 10:21:00,
2013-08-29 04:27:00,59.4,54.1,30.23,NE,45,3.1,5.4,83,0.00,,,0.00,meteobridge,2013-08-29 10:27:00,
2013-08-29 04:34:00,59.5,54.3,30.23,North,0,1.6,3.1,83,0.00,,,0.00,meteobridge,2013-08-29 10:34:00,
2013-08-29 04:40:00,58.8,54.0,30.23,East,90,2.2,3.8,84,0.00,,,0.00,meteobridge,2013-08-29 10:40:00,
2013-08-29 04:47:00,59.2,54.0,30.24,East,90,0.0,0.0,83,0.00,,,0.00,meteobridge,2013-08-29 10:47:00,
2013-08-29 04:53:00,59.0,54.1,30.24,NE,45,2.2,2.2,84,0.00,,,0.00,meteobridge,2013-08-29 10:53:00,
2013-08-29 04:59:00,58.8,54.3,30.24,East,90,0.0,0.0,85,0.00,,,0.00,meteobridge,2013-08-29 10:59:00,
2013-08-29 05:06:00,59.0,54.5,30.24,East,90,0.0,0.0,85,0.00,,,0.00,meteobridge,2013-08-29 11:06:00,
2013-08-29 05:12:00,59.0,54.5,30.23,NE,45,0.0,0.0,85,0.00,,,0.00,meteobridge,2013-08-29 11:12:00,
2013-08-29 05:18:00,58.8,54.7,30.24,NE,45,6.0,6.0,86,0.00,,,0.00,meteobridge,2013-08-29 11:18:00,
2013-08-29 05:25:00,59.4,54.5,30.24,NE,45,3.8,4.5,84,0.00,,,0.00,meteobridge,2013-08-29 11:25:00,
2013-08-29 05:31:00,59.5,54.3,30.24,SE,135,0.0,3.1,83,0.00,,,0.00,meteobridge,2013-08-29 11:31:00,
2013-08-29 05:39:00,59.2,54.3,30.24,North,0,0.7,3.8,84,0.00,,,0.00,meteobridge,2013-08-29 11:39:00,
2013-08-29 05:46:00,59.2,54.3,30.24,East,90,0.7,2.2,84,0.00,,,0.00,meteobridge,2013-08-29 11:46:00,
2013-08-29 05:52:00,59.2,54.3,30.24,NE,45,4.5,4.5,84,0.00,,,0.00,meteobridge,2013-08-29 11:52:00,
2013-08-29 05:58:00,59.4,54.5,30.23,NE,45,5.4,5.4,84,0.00,,,0.00,meteobridge,2013-08-29 11:58:00,
2013-08-29 06:05:00,59.9,54.7,30.24,North,0,6.9,6.9,83,0.00,,,0.00,meteobridge,2013-08-29 12:05:00,
2013-08-29 06:11:00,60.3,54.3,30.24,North,0,5.4,6.9,81,0.00,,,0.00,meteobridge,2013-08-29 12:11:00,
2013-08-29 06:17:00,60.1,54.3,30.24,SE,135,3.8,3.8,81,0.00,,,0.00,meteobridge,2013-08-29 12:17:00,
2013-08-29 06:24:00,60.6,54.5,30.24,SE,135,0.0,0.0,80,0.00,,,0.00,meteobridge,2013-08-29 12:24:00,
2013-08-29 06:30:00,60.6,54.5,30.24,NE,45,1.6,2.2,80,0.00,,,0.00,meteobridge,2013-08-29 12:30:00,
2013-08-29 06:36:00,61.0,54.5,30.24,North,0,2.2,3.1,79,0.00,,,0.00,meteobridge,2013-08-29 12:36:00,
2013-08-29 06:43:00,61.3,54.9,30.24,North,0,2.2,3.1,79,0.00,,,0.00,meteobridge,2013-08-29 12:43:00,
2013-08-29 06:49:00,62.8,55.8,30.24,South,180,1.6,1.6,78,0.00,,,0.00,meteobridge,2013-08-29 12:49:00,
2013-08-29 06:56:00,62.4,55.4,30.24,SE,135,1.6,2.2,78,0.00,,,0.00,meteobridge,2013-08-29 12:56:00,
2013-08-29 07:02:00,66.9,57.9,30.25,South,180,2.2,2.2,73,0.00,,,0.00,meteobridge,2013-08-29 13:02:00,
2013-08-29 07:08:00,67.3,57.2,30.25,North,0,0.0,0.0,70,0.00,,,0.00,meteobridge,2013-08-29 13:08:00,
2013-08-29 07:15:00,70.3,57.6,30.25,SE,135,0.0,0.0,64,0.00,,,0.00,meteobridge,2013-08-29 13:15:00,
2013-08-29 07:21:00,66.6,54.9,30.25,East,90,2.2,5.4,66,0.00,,,0.00,meteobridge,2013-08-29 13:21:00,
2013-08-29 07:27:00,67.5,57.0,30.25,East,90,0.0,0.0,69,0.00,,,0.00,meteobridge,2013-08-29 13:27:00,
2013-08-29 07:34:00,67.5,57.0,30.26,NE,45,1.6,2.2,69,0.00,,,0.00,meteobridge,2013-08-29 13:34:00,
2013-08-29 07:40:00,67.5,56.1,30.26,NW,315,0.0,0.0,67,0.00,,,0.00,meteobridge,2013-08-29 13:40:00,
2013-08-29 07:46:00,67.6,56.7,30.26,North,0,3.1,3.8,68,0.00,,,0.00,meteobridge,2013-08-29 13:46:00,
2013-08-29 07:53:00,69.8,57.6,30.26,NE,45,3.8,3.8,65,0.00,,,0.00,meteobridge,2013-08-29 13:53:00,
2013-08-29 07:59:00,68.7,56.8,30.26,North,0,0.7,3.8,66,0.00,,,0.00,meteobridge,2013-08-29 13:59:00,
2013-08-29 08:05:00,72.7,58.8,30.26,South,180,0.0,0.0,62,0.00,,,0.00,meteobridge,2013-08-29 14:05:00,
2013-08-29 08:12:00,73.0,58.8,30.26,SE,135,5.4,5.4,61,0.00,,,0.00,meteobridge,2013-08-29 14:12:00,
2013-08-29 08:18:00,71.6,57.4,30.27,SE,135,6.9,8.3,61,0.00,,,0.00,meteobridge,2013-08-29 14:18:00,
2013-08-29 08:24:00,72.7,58.5,30.27,South,180,4.5,4.5,61,0.00,,,0.00,meteobridge,2013-08-29 14:24:00,
2013-08-29 08:31:00,72.1,58.5,30.27,South,180,3.8,4.5,62,0.00,,,0.00,meteobridge,2013-08-29 14:31:00,
2013-08-29 08:37:00,72.7,58.5,30.27,SW,225,2.2,5.4,61,0.00,,,0.00,meteobridge,2013-08-29 14:37:00,
2013-08-29 08:43:00,72.7,58.5,30.27,West,270,6.9,7.6,61,0.00,,,0.00,meteobridge,2013-08-29 14:43:00,
2013-08-29 08:50:00,73.8,59.0,30.28,West,270,6.9,6.9,60,0.00,,,0.00,meteobridge,2013-08-29 14:50:00,
2013-08-29 08:56:00,75.2,59.9,30.28,SE,135,2.2,5.4,59,0.00,,,0.00,meteobridge,2013-08-29 14:56:00,
2013-08-29 09:02:00,73.8,58.5,30.28,West,270,6.9,6.9,59,0.00,,,0.00,meteobridge,2013-08-29 15:02:00,
2013-08-29 09:09:00,72.1,57.9,30.27,South,180,4.5,9.2,61,0.00,,,0.00,meteobridge,2013-08-29 15:09:00,
2013-08-29 09:15:00,71.8,58.1,30.28,South,180,7.6,9.8,62,0.00,,,0.00,meteobridge,2013-08-29 15:15:00,
2013-08-29 09:21:00,71.6,58.3,30.28,SW,225,6.0,7.6,63,0.00,,,0.00,meteobridge,2013-08-29 15:21:00,
2013-08-29 09:28:00,74.3,59.5,30.27,West,270,4.5,12.1,60,0.00,,,0.00,meteobridge,2013-08-29 15:28:00,
2013-08-29 09:34:00,75.4,60.1,30.27,SW,225,10.7,10.7,59,0.00,,,0.00,meteobridge,2013-08-29 15:34:00,
2013-08-29 09:40:00,76.3,59.9,30.27,West,270,9.2,11.4,57,0.00,,,0.00,meteobridge,2013-08-29 15:40:00,
2013-08-29 09:47:00,74.8,59.5,30.27,NE,45,6.0,15.9,59,0.00,,,0.00,meteobridge,2013-08-29 15:47:00,
2013-08-29 09:53:00,75.2,58.5,30.27,West,270,13.6,13.6,56,0.00,,,0.00,meteobridge,2013-08-29 15:53:00,
2013-08-29 09:59:00,73.8,57.6,30.27,SW,225,12.1,14.5,57,0.00,,,0.00,meteobridge,2013-08-29 15:59:00,
2013-08-29 10:06:00,74.1,60.3,30.27,North,0,9.8,9.8,62,0.00,,,0.00,meteobridge,2013-08-29 16:06:00,
2013-08-29 10:12:00,75.2,59.0,30.27,West,270,8.3,12.1,57,0.00,,,0.00,meteobridge,2013-08-29 16:12:00,
2013-08-29 10:19:00,73.4,59.5,30.27,North,0,6.0,7.6,62,0.00,,,0.00,meteobridge,2013-08-29 16:19:00,
2013-08-29 10:25:00,73.9,59.2,30.28,North,0,6.0,6.9,60,0.00,,,0.00,meteobridge,2013-08-29 16:25:00,
2013-08-29 10:31:00,70.5,57.7,30.28,NW,315,8.3,9.8,64,0.00,,,0.00,meteobridge,2013-08-29 16:31:00,
2013-08-29 10:38:00,69.1,58.1,30.28,West,270,5.4,8.3,68,0.00,,,0.00,meteobridge,2013-08-29 16:38:00,
2013-08-29 10:44:00,69.3,58.6,30.28,North,0,8.3,9.2,69,0.00,,,0.00,meteobridge,2013-08-29 16:44:00,
2013-08-29 10:50:00,69.8,59.2,30.28,North,0,3.1,3.1,69,0.00,,,0.00,meteobridge,2013-08-29 16:50:00,
2013-08-29 10:57:00,68.9,57.9,30.28,South,180,5.4,6.9,68,0.00,,,0.00,meteobridge,2013-08-29 16:57:00,
2013-08-29 11:03:00,71.6,60.1,30.27,North,0,2.2,2.2,67,0.00,,,0.00,meteobridge,2013-08-29 17:03:00,
2013-08-29 11:09:00,73.0,59.2,30.27,East,90,1.6,3.1,62,0.00,,,0.00,meteobridge,2013-08-29 17:09:00,
2013-08-29 11:16:00,74.5,59.7,30.27,West,270,6.0,12.1,60,0.00,,,0.00,meteobridge,2013-08-29 17:16:00,
2013-08-29 11:22:00,73.6,58.8,30.27,North,0,7.6,7.6,60,0.00,,,0.00,meteobridge,2013-08-29 17:22:00,
2013-08-29 11:28:00,71.2,58.5,30.27,North,0,9.2,9.2,64,0.00,,,0.00,meteobridge,2013-08-29 17:28:00,
2013-08-29 11:35:00,71.2,58.8,30.27,East,90,9.8,9.8,65,0.00,,,0.00,meteobridge,2013-08-29 17:35:00,
2013-08-29 11:41:00,71.6,58.8,30.27,NE,45,4.5,4.5,64,0.00,,,0.00,meteobridge,2013-08-29 17:41:00,
2013-08-29 11:47:00,72.5,59.2,30.27,North,0,11.4,11.4,63,0.00,,,0.00,meteobridge,2013-08-29 17:47:00,
2013-08-29 11:54:00,71.6,58.3,30.27,NE,45,2.2,8.3,63,0.00,,,0.00,meteobridge,2013-08-29 17:54:00,
2013-08-29 12:00:00,72.0,58.6,30.27,North,0,5.4,5.4,63,0.00,,,0.00,meteobridge,2013-08-29 18:00:00,
2013-08-29 12:06:00,72.1,58.5,30.27,West,270,4.5,10.7,62,0.00,,,0.00,meteobridge,2013-08-29 18:06:00,
2013-08-29 12:13:00,71.4,58.1,30.26,West,270,10.7,10.7,63,0.00,,,0.00,meteobridge,2013-08-29 18:13:00,
2013-08-29 12:19:00,71.6,58.3,30.25,North,0,8.3,10.7,63,0.00,,,0.00,meteobridge,2013-08-29 18:19:00,
2013-08-29 12:25:00,70.9,58.5,30.26,NW,315,6.9,7.6,65,0.00,,,0.00,meteobridge,2013-08-29 18:25:00,
2013-08-29 12:32:00,71.4,59.0,30.26,NW,315,3.1,5.4,65,0.00,,,0.00,meteobridge,2013-08-29 18:32:00,
2013-08-29 12:38:00,70.5,58.1,30.25,NW,315,3.8,10.7,65,0.00,,,0.00,meteobridge,2013-08-29 18:38:00,
2013-08-29 12:44:00,70.7,58.3,30.25,NE,45,5.4,6.9,65,0.00,,,0.00,meteobridge,2013-08-29 18:44:00,
2013-08-29 12:51:00,71.6,58.8,30.25,North,0,4.5,4.5,64,0.00,,,0.00,meteobridge,2013-08-29 18:51:00,
2013-08-29 12:57:00,72.3,59.0,30.24,NE,45,2.2,5.4,63,0.00,,,0.00,meteobridge,2013-08-29 18:57:00,
2013-08-29 13:03:00,73.9,58.6,30.24,West,270,2.2,2.2,59,0.00,,,0.00,meteobridge,2013-08-29 19:03:00,
2013-08-29 13:10:00,74.5,58.8,30.23,West,270,4.5,4.5,58,0.00,,,0.00,meteobridge,2013-08-29 19:10:00,
2013-08-29 13:16:00,74.7,59.4,30.23,South,180,0.0,4.5,59,0.00,,,0.00,meteobridge,2013-08-29 19:16:00,
2013-08-29 13:22:00,73.9,56.3,30.22,SW,225,9.2,9.2,54,0.00,,,0.00,meteobridge,2013-08-29 19:22:00,
2013-08-29 13:29:00,73.0,55.9,30.23,West,270,8.3,13.6,55,0.00,,,0.00,meteobridge,2013-08-29 19:29:00,
2013-08-29 13:35:00,73.2,56.7,30.22,NW,315,6.9,6.9,56,0.00,,,0.00,meteobridge,2013-08-29 19:35:00,
2013-08-29 13:42:00,73.0,56.8,30.22,NE,45,3.1,3.1,57,0.00,,,0.00,meteobridge,2013-08-29 19:42:00,
2013-08-29 13:48:00,70.9,55.4,30.23,West,270,6.9,13.6,58,0.00,,,0.00,meteobridge,2013-08-29 19:48:00,
2013-08-29 13:54:00,70.3,56.7,30.23,SE,135,14.5,14.5,62,0.00,,,0.00,meteobridge,2013-08-29 19:54:00,
2013-08-29 14:01:00,69.3,56.1,30.22,SE,135,13.6,14.5,63,0.00,,,0.00,meteobridge,2013-08-29 20:01:00,
2013-08-29 14:07:00,70.0,56.3,30.22,NW,315,6.9,11.4,62,0.00,,,0.00,meteobridge,2013-08-29 20:07:00,
2013-08-29 14:13:00,70.9,56.8,30.22,SE,135,2.2,7.6,61,0.00,,,0.00,meteobridge,2013-08-29 20:13:00,
2013-08-29 14:20:00,70.9,57.2,30.22,SE,135,7.6,7.6,62,0.00,,,0.00,meteobridge,2013-08-29 20:20:00,
2013-08-29 14:26:00,70.9,57.7,30.22,SE,135,10.7,10.7,63,0.00,,,0.00,meteobridge,2013-08-29 20:26:00,
2013-08-29 14:32:00,71.6,57.9,30.22,South,180,8.3,8.3,62,0.00,,,0.00,meteobridge,2013-08-29 20:32:00,
2013-08-29 14:39:00,70.5,57.4,30.22,SE,135,4.5,6.9,63,0.00,,,0.00,meteobridge,2013-08-29 20:39:00,
2013-08-29 14:45:00,70.9,57.7,30.22,NE,45,8.3,8.3,63,0.00,,,0.00,meteobridge,2013-08-29 20:45:00,
2013-08-29 14:51:00,70.0,56.8,30.22,South,180,5.4,9.8,63,0.00,,,0.00,meteobridge,2013-08-29 20:51:00,
2013-08-29 15:00:00,70.2,57.0,30.22,NW,315,0.7,6.0,63,0.00,,,0.00,meteobridge,2013-08-29 21:00:00,
2013-08-29 15:06:00,70.0,56.8,30.22,SE,135,6.9,6.9,63,0.00,,,0.00,meteobridge,2013-08-29 21:06:00,
2013-08-29 15:12:00,70.0,56.8,30.22,SE,135,0.7,3.8,63,0.00,,,0.00,meteobridge,2013-08-29 21:12:00,
2013-08-29 15:19:00,71.1,57.4,30.22,NE,45,3.1,3.1,62,0.00,,,0.00,meteobridge,2013-08-29 21:19:00,
2013-08-29 15:25:00,71.4,57.7,30.21,NE,45,0.0,1.6,62,0.00,,,0.00,meteobridge,2013-08-29 21:25:00,
2013-08-29 15:31:00,71.2,57.9,30.21,NE,45,4.5,4.5,63,0.00,,,0.00,meteobridge,2013-08-29 21:31:00,
2013-08-29 15:38:00,71.2,57.9,30.21,North,0,3.8,3.8,63,0.00,,,0.00,meteobridge,2013-08-29 21:38:00,
2013-08-29 15:44:00,70.5,57.4,30.21,East,90,5.4,5.4,63,0.00,,,0.00,meteobridge,2013-08-29 21:44:00,
2013-08-29 15:51:00,70.3,57.2,30.21,East,90,5.4,6.0,63,0.00,,,0.00,meteobridge,2013-08-29 21:51:00,
2013-08-29 15:57:00,70.7,57.9,30.21,NE,45,3.1,5.4,64,0.00,,,0.00,meteobridge,2013-08-29 21:57:00,
2013-08-29 16:03:00,71.1,57.7,30.22,North,0,5.4,5.4,63,0.00,,,0.00,meteobridge,2013-08-29 22:03:00,
2013-08-29 16:10:00,71.4,58.1,30.22,East,90,3.8,4.5,63,0.00,,,0.00,meteobridge,2013-08-29 22:10:00,
2013-08-29 16:16:00,70.9,57.7,30.22,SE,135,3.8,4.5,63,0.00,,,0.00,meteobridge,2013-08-29 22:16:00,
2013-08-29 16:22:00,70.7,57.6,30.22,East,90,4.5,5.4,63,0.00,,,0.00,meteobridge,2013-08-29 22:22:00,
2013-08-29 16:29:00,70.7,57.0,30.22,NE,45,3.1,6.0,62,0.00,,,0.00,meteobridge,2013-08-29 22:29:00,
2013-08-29 16:35:00,70.9,57.7,30.22,North,0,0.0,0.0,63,0.00,,,0.00,meteobridge,2013-08-29 22:35:00,
2013-08-29 16:41:00,70.7,57.0,30.22,NE,45,3.1,3.1,62,0.00,,,0.00,meteobridge,2013-08-29 22:41:00,
2013-08-29 16:48:00,70.5,56.8,30.22,North,0,3.1,3.1,62,0.00,,,0.00,meteobridge,2013-08-29 22:48:00,
2013-08-29 16:54:00,70.5,57.4,30.22,West,270,1.6,3.1,63,0.00,,,0.00,meteobridge,2013-08-29 22:54:00,
2013-08-29 17:02:00,70.0,59.0,30.22,West,270,0.0,0.0,68,0.00,,,0.00,meteobridge,2013-08-29 23:02:00,
2013-08-29 17:09:00,69.1,59.7,30.22,NW,315,1.6,2.2,72,0.00,,,0.00,meteobridge,2013-08-29 23:09:00,
2013-08-29 17:15:00,68.7,60.1,30.23,West,270,2.2,2.2,74,0.00,,,0.00,meteobridge,2013-08-29 23:15:00,
2013-08-29 17:21:00,68.2,59.9,30.23,West,270,3.1,3.1,75,0.00,,,0.00,meteobridge,2013-08-29 23:21:00,
2013-08-29 17:28:00,68.2,60.3,30.23,NW,315,1.6,2.2,76,0.00,,,0.00,meteobridge,2013-08-29 23:28:00,
2013-08-29 17:34:00,68.0,60.8,30.23,NW,315,3.1,3.1,78,0.00,,,0.00,meteobridge,2013-08-29 23:34:00,
2013-08-29 17:40:00,67.8,61.0,30.24,North,0,0.0,0.0,79,0.00,,,0.00,meteobridge,2013-08-29 23:40:00,
2013-08-29 17:47:00,67.8,61.3,30.23,South,180,0.0,0.0,80,0.00,,,0.00,meteobridge,2013-08-29 23:47:00,
2013-08-29 17:53:00,67.5,61.2,30.24,South,180,5.4,6.9,80,0.00,,,0.00,meteobridge,2013-08-29 23:53:00,
2013-08-29 17:59:00,67.3,59.0,30.23,South,180,4.5,6.0,75,0.00,,,0.00,meteobridge,2013-08-29 23:59:00,
2013-08-29 18:06:00,66.9,58.3,30.24,SE,135,3.8,7.6,74,0.00,,,0.00,meteobridge,2013-08-30 00:06:00,
2013-08-29 18:12:00,66.6,58.5,30.24,South,180,4.5,12.1,75,0.00,,,0.00,meteobridge,2013-08-30 00:12:00,
2013-08-29 18:19:00,66.6,58.5,30.24,SE,135,5.4,5.4,75,0.00,,,0.00,meteobridge,2013-08-30 00:19:00,
2013-08-29 18:25:00,66.7,58.6,30.24,South,180,2.2,3.8,75,0.00,,,0.00,meteobridge,2013-08-30 00:25:00,
2013-08-29 18:31:00,66.4,58.3,30.24,South,180,3.1,3.8,75,0.00,,,0.00,meteobridge,2013-08-30 00:31:00,
2013-08-29 18:38:00,66.0,58.6,30.24,South,180,3.8,3.8,77,0.00,,,0.00,meteobridge,2013-08-30 00:38:00,
2013-08-29 18:44:00,65.8,58.8,30.24,South,180,0.0,0.0,78,0.00,,,0.00,meteobridge,2013-08-30 00:44:00,
2013-08-29 18:52:00,65.7,58.6,30.24,South,180,0.0,0.0,78,0.00,,,0.00,meteobridge,2013-08-30 00:52:00,
2013-08-29 19:01:00,65.5,58.5,30.24,South,180,0.0,0.0,78,0.00,,,0.00,meteobridge,2013-08-30 01:01:00,
2013-08-29 19:07:00,65.3,58.6,30.24,East,90,0.0,0.0,79,0.00,,,0.00,meteobridge,2013-08-30 01:07:00,
2013-08-29 19:14:00,64.8,58.5,30.24,East,90,1.6,2.2,80,0.00,,,0.00,meteobridge,2013-08-30 01:14:00,
2013-08-29 19:20:00,64.6,58.3,30.24,East,90,0.0,3.1,80,0.00,,,0.00,meteobridge,2013-08-30 01:20:00,
2013-08-29 19:26:00,64.4,58.1,30.24,East,90,0.0,0.0,80,0.00,,,0.00,meteobridge,2013-08-30 01:26:00,
2013-08-29 19:33:00,64.2,58.3,30.25,East,90,0.0,0.0,81,0.00,,,0.00,meteobridge,2013-08-30 01:33:00,
2013-08-29 19:39:00,64.0,58.1,30.25,East,90,0.0,0.0,81,0.00,,,0.00,meteobridge,2013-08-30 01:39:00,
2013-08-29 19:45:00,63.7,57.7,30.25,NE,45,2.2,3.1,81,0.00,,,0.00,meteobridge,2013-08-30 01:45:00,
2013-08-29 19:52:00,63.9,57.9,30.26,East,90,4.5,4.5,81,0.00,,,0.00,meteobridge,2013-08-30 01:52:00,
2013-08-29 19:58:00,63.0,57.0,30.25,South,180,0.7,0.7,81,0.00,,,0.00,meteobridge,2013-08-30 01:58:00,
2013-08-29 20:04:00,62.2,57.0,30.26,NE,45,5.4,5.4,83,0.00,,,0.00,meteobridge,2013-08-30 02:04:00,
2013-08-29 20:11:00,63.1,57.6,30.26,North,0,3.1,4.5,82,0.00,,,0.00,meteobridge,2013-08-30 02:11:00,
2013-08-29 20:17:00,62.8,56.8,30.26,East,90,3.8,3.8,81,0.00,,,0.00,meteobridge,2013-08-30 02:17:00,
2013-08-29 20:23:00,63.3,57.4,30.26,East,90,0.0,1.6,81,0.00,,,0.00,meteobridge,2013-08-30 02:23:00,
2013-08-29 20:30:00,63.1,57.2,30.27,East,90,0.0,2.2,81,0.00,,,0.00,meteobridge,2013-08-30 02:30:00,
2013-08-29 20:36:00,63.3,57.4,30.27,East,90,1.6,3.8,81,0.00,,,0.00,meteobridge,2013-08-30 02:36:00,
2013-08-29 20:42:00,63.3,57.0,30.27,NE,45,6.0,6.9,80,0.00,,,0.00,meteobridge,2013-08-30 02:42:00,
2013-08-29 20:49:00,63.7,56.7,30.27,NE,45,6.0,8.3,78,0.00,,,0.00,meteobridge,2013-08-30 02:49:00,
2013-08-29 20:55:00,63.5,56.1,30.27,NE,45,3.8,5.4,77,0.00,,,0.00,meteobridge,2013-08-30 02:55:00,
2013-08-29 21:01:00,63.5,56.1,30.27,NE,45,4.5,4.5,77,0.00,,,0.00,meteobridge,2013-08-30 03:01:00,
2013-08-29 21:08:00,63.3,55.9,30.27,East,90,3.1,3.8,77,0.00,,,0.00,meteobridge,2013-08-30 03:08:00,
2013-08-29 21:14:00,63.1,56.1,30.27,NE,45,0.0,0.0,78,0.00,,,0.00,meteobridge,2013-08-30 03:14:00,
2013-08-29 21:20:00,63.0,56.3,30.27,NE,45,0.0,0.0,79,0.00,,,0.00,meteobridge,2013-08-30 03:20:00,
2013-08-29 21:27:00,62.4,56.1,30.27,North,0,0.0,0.0,80,0.00,,,0.00,meteobridge,2013-08-30 03:27:00,
2013-08-29 21:33:00,62.6,56.7,30.28,South,180,0.0,0.0,81,0.00,,,0.00,meteobridge,2013-08-30 03:33:00,
2013-08-29 21:39:00,62.2,56.7,30.28,East,90,0.0,0.0,82,0.00,,,0.00,meteobridge,2013-08-30 03:39:00,
2013-08-29 21:46:00,62.1,56.5,30.28,East,90,0.0,0.0,82,0.00,,,0.00,meteobridge,2013-08-30 03:46:00,
2013-08-29 21:52:00,61.9,56.3,30.28,East,90,0.0,0.0,82,0.00,,,0.00,meteobridge,2013-08-30 03:52:00,
2013-08-29 21:58:00,61.9,56.7,30.28,NE,45,0.0,0.0,83,0.00,,,0.00,meteobridge,2013-08-30 03:58:00,
2013-08-29 22:01:00,61.9,56.7,30.28,East,90,0.0,0.0,83,0.00,,,0.00,meteobridge,2013-08-30 04:01:00,
2013-08-29 22:03:00,61.9,56.7,30.28,NE,45,1.6,1.6,83,0.00,,,0.00,meteobridge,2013-08-30 04:03:00,
2013-08-29 22:05:00,61.9,56.7,30.28,NE,45,0.0,2.2,83,0.00,,,0.00,meteobridge,2013-08-30 04:05:00,
2013-08-29 22:11:00,61.7,56.5,30.28,NE,45,2.2,2.2,83,0.00,,,0.00,meteobridge,2013-08-30 04:11:00,
2013-08-29 22:17:00,61.9,56.7,30.27,NE,45,0.0,2.2,83,0.00,,,0.00,meteobridge,2013-08-30 04:17:00,
2013-08-29 22:20:00,61.9,56.7,30.27,East,90,0.0,0.0,83,0.00,,,0.00,meteobridge,2013-08-30 04:20:00,
2013-08-29 22:26:00,61.5,56.3,30.27,North,0,0.0,0.0,83,0.00,,,0.00,meteobridge,2013-08-30 04:26:00,
2013-08-29 22:32:00,61.7,56.1,30.27,NE,45,0.0,0.0,82,0.00,,,0.00,meteobridge,2013-08-30 04:32:00,
2013-08-29 22:39:00,61.7,56.1,30.27,NE,45,0.0,0.0,82,0.00,,,0.00,meteobridge,2013-08-30 04:39:00,
2013-08-29 22:45:00,61.7,56.1,30.27,East,90,0.0,0.0,82,0.00,,,0.00,meteobridge,2013-08-30 04:45:00,
2013-08-29 22:51:00,61.5,55.9,30.28,East,90,3.8,3.8,82,0.00,,,0.00,meteobridge,2013-08-30 04:51:00,
2013-08-29 22:58:00,61.5,55.9,30.27,NE,45,4.5,4.5,82,0.00,,,0.00,meteobridge,2013-08-30 04:58:00,
2013-08-29 23:04:00,60.8,55.2,30.27,South,180,2.2,3.1,82,0.00,,,0.00,meteobridge,2013-08-30 05:04:00,
2013-08-29 23:10:00,61.5,56.3,30.27,NE,45,0.0,3.1,83,0.00,,,0.00,meteobridge,2013-08-30 05:10:00,
2013-08-29 23:17:00,61.9,56.7,30.27,NE,45,0.0,2.2,83,0.00,,,0.00,meteobridge,2013-08-30 05:17:00,
2013-08-29 23:23:00,61.0,55.4,30.27,NE,45,4.5,4.5,82,0.00,,,0.00,meteobridge,2013-08-30 05:23:00,
2013-08-29 23:29:00,60.6,55.4,30.26,NE,45,2.2,3.1,83,0.00,,,0.00,meteobridge,2013-08-30 05:29:00,
2013-08-29 23:36:00,60.6,55.8,30.27,NE,45,3.1,3.1,84,0.00,,,0.00,meteobridge,2013-08-30 05:36:00,
2013-08-29 23:42:00,61.3,56.1,30.26,North,0,2.2,3.1,83,0.00,,,0.00,meteobridge,2013-08-30 05:42:00,
2013-08-29 23:48:00,61.3,56.5,30.26,East,90,0.0,0.0,84,0.00,,,0.00,meteobridge,2013-08-30 05:48:00,
2013-08-29 23:55:00,61.2,56.3,30.26,North,0,2.2,2.2,84,0.00,,,0.00,meteobridge,2013-08-30 05:55:00,